| time (UTC) | temp C | wind direction | speed KPH | gust KPH | rain 1hr cm | rain 24hr cm | rain mn cm | humidity % | barometer mb |
| 20260503230031 | 22 | 356 | 9.7 | 24.1 | 0.00 | 0.61 | 0.61 | 82 | 1015.7 |
| 20260503224505 | 22 | 322 | 9.7 | 24.1 | 0.00 | 0.61 | 0.61 | 81 | 1015.6 |
| 20260503223025 | 22 | 286 | 9.7 | 22.5 | 0.00 | 0.61 | 0.61 | 81 | 1015.7 |
| 20260503221557 | 22 | 314 | 6.4 | 19.3 | 0.00 | 0.61 | 0.61 | 81 | 1015.7 |
| 20260503220037 | 22 | 316 | 6.4 | 16.1 | 0.00 | 0.61 | 0.61 | 80 | 1015.8 |
| 20260503214546 | 22 | 298 | 8.0 | 19.3 | 0.00 | 0.61 | 0.61 | 80 | 1015.7 |
| 20260503213028 | 22 | 334 | 6.4 | 14.5 | 0.00 | 0.61 | 0.61 | 80 | 1015.8 |
| 20260503211604 | 22 | 309 | 6.4 | 16.1 | 0.00 | 0.61 | 0.61 | 80 | 1015.8 |
| 20260503210006 | 22 | 328 | 4.8 | 17.7 | 0.00 | 0.61 | 0.61 | 80 | 1016.0 |
| 20260503204547 | 22 | 329 | 4.8 | 14.5 | 0.00 | 0.61 | 0.61 | 80 | 1016.2 |
| 20260503203057 | 22 | 331 | 4.8 | 16.1 | 0.00 | 0.61 | 0.61 | 80 | 1016.3 |
| 20260503201509 | 22 | 350 | 6.4 | 17.7 | 0.00 | 0.61 | 0.61 | 81 | 1016.2 |
| 20260503200049 | 22 | 301 | 4.8 | 19.3 | 0.00 | 0.61 | 0.61 | 80 | 1016.3 |
| 20260503194533 | 22 | 276 | 9.7 | 19.3 | 0.00 | 0.61 | 0.61 | 81 | 1016.3 |
| 20260503193100 | 22 | 214 | 8.0 | 19.3 | 0.00 | 0.61 | 0.61 | 81 | 1016.2 |
| 20260503191503 | 22 | 306 | 8.0 | 17.7 | 0.00 | 0.61 | 0.61 | 82 | 1016.5 |
| 20260503190044 | 21 | 302 | 8.0 | 19.3 | 0.05 | 0.61 | 0.61 | 83 | 1016.8 |
| 20260503184518 | 21 | 234 | 9.7 | 20.9 | 0.10 | 0.61 | 0.61 | 84 | 1017.1 |
| 20260503183037 | 21 | 289 | 4.8 | 20.9 | 0.10 | 0.61 | 0.61 | 84 | 1017.3 |
| 20260503181540 | 21 | 229 | 6.4 | 19.3 | 0.10 | 0.61 | 0.61 | 84 | 1017.5 |
| 20260503180012 | 22 | 278 | 8.0 | 20.9 | 0.05 | 0.56 | 0.56 | 81 | 1017.7 |
| 20260503174604 | 22 | 279 | 8.0 | 17.7 | 0.00 | 0.51 | 0.51 | 80 | 1017.5 |
| 20260503173106 | 22 | 239 | 6.4 | 19.3 | 0.00 | 0.51 | 0.51 | 80 | 1017.6 |
| 20260503171527 | 22 | 291 | 6.4 | 16.1 | 0.00 | 0.51 | 0.51 | 81 | 1017.5 |
| 20260503160118 | 21 | 303 | 9.7 | 19.3 | 0.00 | 0.51 | 0.51 | 87 | 1018.1 |
| 20260503081608 | 21 | 295 | 6.4 | 22.5 | 0.00 | 0.00 | 0.00 | 87 | 1014.2 |
| 20260503071502 | 22 | 285 | 0.0 | 4.8 | 0.00 | 0.00 | 0.00 | 86 | 1013.4 |
| 20260503054551 | 22 | 125 | 0.0 | 4.8 | 0.00 | 0.00 | 0.00 | 85 | 1014.1 |
| 20260503053021 | 23 | 335 | 0.0 | 3.2 | 0.00 | 0.00 | 0.00 | 84 | 1014.3 |
| 20260503051543 | 23 | 101 | 1.6 | 4.8 | 0.00 | 0.00 | 0.00 | 84 | 1014.3 |
| 20260503050042 | 23 | 60 | 0.0 | 4.8 | 0.00 | 0.00 | 0.00 | 84 | 1014.3 |
| 20260503044511 | 23 | 333 | 0.0 | 4.8 | 0.00 | 0.00 | 0.00 | 83 | 1014.0 |
| 20260503043106 | 23 | 202 | 0.0 | 3.2 | 0.00 | 0.00 | 0.00 | 83 | 1013.5 |
| 20260503041527 | 23 | 175 | 0.0 | 3.2 | 0.00 | 0.00 | 0.00 | 82 | 1013.8 |
| 20260503040056 | 23 | 345 | 0.0 | 4.8 | 0.00 | 0.00 | 0.00 | 82 | 1013.8 |
| 20260503034500 | 23 | 353 | 0.0 | 6.4 | 0.00 | 0.00 | 0.00 | 82 | 1013.6 |
| 20260503033028 | 23 | 268 | 0.0 | 6.4 | 0.00 | 0.00 | 0.00 | 82 | 1013.6 |
| 20260503031506 | 24 | 285 | 1.6 | 4.8 | 0.00 | 0.00 | 0.00 | 81 | 1013.2 |
| 20260503030050 | 24 | 54 | 0.0 | 4.8 | 0.00 | 0.00 | 0.00 | 81 | 1012.5 |
| 20260503024549 | 24 | 148 | 0.0 | 3.2 | 0.00 | 0.00 | 0.00 | 80 | 1012.1 |
| 20260503023033 | 25 | 55 | 4.8 | 9.7 | 0.00 | 0.00 | 0.00 | 79 | 1012.0 |
| 20260503021535 | 25 | 64 | 4.8 | 9.7 | 0.00 | 0.00 | 0.00 | 79 | 1011.7 |
| 20260503020037 | 26 | 57 | 4.8 | 14.5 | 0.00 | 0.00 | 0.00 | 75 | 1011.6 |
| 20260503014541 | 26 | 101 | 6.4 | 11.3 | 0.00 | 0.00 | 0.00 | 74 | 1011.1 |
| 20260503013001 | 26 | 48 | 4.8 | 11.3 | 0.00 | 0.00 | 0.00 | 74 | 1011.5 |
| 20260503011524 | 26 | 49 | 3.2 | 9.7 | 0.00 | 0.00 | 0.00 | 73 | 1011.6 |
| 20260503010015 | 26 | 78 | 3.2 | 6.4 | 0.00 | 0.00 | 0.00 | 74 | 1011.6 |
| 20260503004550 | 26 | 67 | 0.0 | 4.8 | 0.00 | 0.00 | 0.00 | 74 | 1011.5 |
| 20260503003038 | 26 | 59 | 0.0 | 4.8 | 0.00 | 0.00 | 0.00 | 74 | 1011.9 |
| 20260503001607 | 26 | 342 | 1.6 | 6.4 | 0.00 | 0.00 | 0.00 | 73 | 1011.9 |
| 20260503000054 | 26 | 125 | 1.6 | 6.4 | 0.00 | 0.00 | 0.00 | 71 | 1011.5 |
| 20260502234601 | 27 | 135 | 0.0 | 4.8 | 0.00 | 0.00 | 0.00 | 69 | 1012.0 |
| 20260502233031 | 27 | 216 | 0.0 | 3.2 | 0.00 | 0.00 | 0.00 | 67 | 1011.6 |
| 20260502231546 | 27 | 111 | 0.0 | 4.8 | 0.00 | 0.00 | 0.00 | 64 | 1011.5 |